Time;durP1;ratioP1;P1;durP2;ratioP2;P2;SDS_P1;SDS_P2;PMS_P1;PMS_P2;Temp;Humidity;BMP_temperature;BMP_pressure;BME280_temperature;BME280_humidity;BME280_pressure;Samples;Min_cycle;Max_cycle;Signal;HPM_P1;HPM_P2
2022/03/15 00:00:53;;;;;;;9.13;7.30;;;12.90;48.60;;;;;;5032170;28;20221;-46
2022/03/15 00:03:20;;;;;;;8.00;6.27;;;12.80;48.80;;;;;;5031988;28;20568;-46
2022/03/15 00:05:45;;;;;;;11.80;6.30;;;12.80;49.00;;;;;;5030408;28;20232;-45
2022/03/15 00:08:12;;;;;;;11.40;6.73;;;12.80;49.10;;;;;;5032387;28;20435;-45
2022/03/15 00:10:38;;;;;;;8.23;7.13;;;12.70;49.20;;;;;;5031735;28;20201;-46
2022/03/15 00:13:04;;;;;;;11.40;6.33;;;12.60;49.10;;;;;;5032379;28;20513;-47
2022/03/15 00:15:30;;;;;;;8.30;6.60;;;12.30;49.50;;;;;;5030448;28;20240;-46
2022/03/15 00:17:56;;;;;;;10.10;6.87;;;12.00;50.90;;;;;;5031956;28;20798;-45
2022/03/15 00:20:23;;;;;;;8.80;7.30;;;12.20;50.90;;;;;;5031534;28;20476;-46
2022/03/15 00:22:50;;;;;;;9.00;7.00;;;12.30;50.70;;;;;;5032042;28;20208;-45
2022/03/15 00:25:18;;;;;;;10.67;6.57;;;12.30;50.40;;;;;;5031428;28;20483;-46
2022/03/15 00:27:48;;;;;;;12.60;6.40;;;12.40;50.10;;;;;;5031504;28;20519;-45
2022/03/15 00:30:14;;;;;;;7.63;6.67;;;12.50;50.10;;;;;;5029763;28;20475;-45
2022/03/15 00:32:40;;;;;;;9.27;6.30;;;12.40;50.00;;;;;;5030290;28;20420;-45
2022/03/15 00:35:11;;;;;;;9.03;6.20;;;12.40;50.00;;;;;;5031202;28;20420;-45
2022/03/15 00:37:37;;;;;;;7.63;5.73;;;12.30;50.20;;;;;;5031562;28;20428;-45
2022/03/15 00:40:04;;;;;;;7.93;6.17;;;12.10;50.70;;;;;;5031115;28;20582;-45
2022/03/15 00:42:30;;;;;;;8.53;5.67;;;12.10;50.80;;;;;;5031263;28;20436;-46
2022/03/15 00:44:58;;;;;;;7.70;5.40;;;12.10;50.80;;;;;;5031145;28;20518;-46
2022/03/15 00:47:24;;;;;;;8.23;6.43;;;12.20;50.80;;;;;;5031525;28;20276;-45
2022/03/15 00:49:49;;;;;;;11.37;7.60;;;12.10;50.90;;;;;;5030733;28;21304;-46
2022/03/15 00:52:15;;;;;;;11.93;8.07;;;12.10;51.00;;;;;;5031068;28;20185;-45
2022/03/15 00:54:40;;;;;;;13.80;7.53;;;12.10;50.90;;;;;;5030865;28;20284;-45
2022/03/15 00:57:06;;;;;;;14.00;7.37;;;12.20;51.00;;;;;;5031352;28;20664;-45
2022/03/15 00:59:32;;;;;;;10.70;6.80;;;12.30;50.70;;;;;;5028482;28;20415;-45
2022/03/15 01:01:58;;;;;;;13.50;7.20;;;12.30;50.40;;;;;;5030864;28;20435;-45
2022/03/15 01:04:24;;;;;;;9.17;6.43;;;12.30;50.40;;;;;;5030873;28;20258;-46
2022/03/15 01:06:50;;;;;;;8.20;6.40;;;12.30;50.50;;;;;;5039028;28;20200;-45
2022/03/15 01:09:15;;;;;;;10.23;7.20;;;12.30;50.40;;;;;;5050288;28;20767;-45
2022/03/15 01:11:41;;;;;;;9.03;5.60;;;12.40;50.30;;;;;;5050948;28;20193;-46
2022/03/15 01:14:07;;;;;;;7.00;6.10;;;12.30;50.20;;;;;;5050464;28;20252;-46
2022/03/15 01:16:33;;;;;;;11.87;7.07;;;12.20;50.30;;;;;;5050902;28;20192;-46
2022/03/15 01:18:58;;;;;;;7.87;6.03;;;11.90;51.10;;;;;;5050425;28;20438;-45
2022/03/15 01:21:25;;;;;;;6.20;5.43;;;11.90;51.30;;;;;;5050601;28;20599;-45
2022/03/15 01:23:50;;;;;;;7.90;5.30;;;11.70;51.60;;;;;;5049836;28;20628;-46
2022/03/15 01:26:16;;;;;;;11.20;6.20;;;11.80;51.90;;;;;;5049441;28;20431;-46
2022/03/15 01:28:42;;;;;;;11.97;6.90;;;11.80;51.60;;;;;;5050065;28;20200;-45
2022/03/15 01:31:08;;;;;;;10.30;6.27;;;11.70;51.50;;;;;;5038391;28;20216;-47
2022/03/15 01:33:34;;;;;;;7.93;6.20;;;11.70;51.90;;;;;;5029885;28;20522;-46
2022/03/15 01:36:00;;;;;;;10.27;5.90;;;11.70;51.80;;;;;;5030885;28;20235;-46
2022/03/15 01:38:25;;;;;;;11.50;6.30;;;11.80;51.60;;;;;;5030083;28;20942;-45
2022/03/15 01:40:52;;;;;;;10.17;6.90;;;11.80;51.30;;;;;;5030108;28;20580;-47
2022/03/15 01:43:17;;;;;;;7.23;6.43;;;11.90;51.10;;;;;;5029684;28;20181;-45
2022/03/15 01:45:43;;;;;;;6.00;4.60;;;12.00;51.00;;;;;;5030460;28;20537;-45
2022/03/15 01:48:09;;;;;;;7.30;5.10;;;11.80;51.50;;;;;;5030570;28;20735;-46
2022/03/15 01:50:36;;;;;;;9.37;5.63;;;11.50;52.00;;;;;;5029312;28;20189;-45
2022/03/15 01:53:02;;;;;;;7.20;5.77;;;11.60;52.00;;;;;;5029214;28;20773;-47
2022/03/15 01:55:28;;;;;;;6.17;4.93;;;11.60;52.00;;;;;;5029975;28;20447;-46
2022/03/15 01:57:54;;;;;;;6.90;5.50;;;11.70;52.00;;;;;;5030274;28;20428;-46
2022/03/15 02:00:20;;;;;;;6.67;4.90;;;11.70;52.00;;;;;;5029507;28;20205;-47
2022/03/15 02:02:47;;;;;;;6.40;5.23;;;11.70;51.90;;;;;;5030133;28;20416;-45
2022/03/15 02:05:12;;;;;;;8.70;4.80;;;11.60;52.10;;;;;;5029880;28;20490;-46
2022/03/15 02:07:38;;;;;;;6.50;5.00;;;11.70;52.30;;;;;;5030259;28;20801;-45
2022/03/15 02:10:06;;;;;;;6.90;5.57;;;11.70;52.20;;;;;;5029820;28;20193;-45
2022/03/15 02:12:34;;;;;;;8.37;5.27;;;11.80;52.10;;;;;;5029791;28;20275;-45
2022/03/15 02:15:03;;;;;;;8.30;5.33;;;11.90;51.90;;;;;;5029673;28;20499;-45
2022/03/15 02:17:29;;;;;;;6.40;5.70;;;12.00;51.70;;;;;;5030188;28;20880;-46
2022/03/15 02:19:55;;;;;;;7.13;5.27;;;12.00;51.40;;;;;;5029296;28;20485;-49
2022/03/15 02:22:22;;;;;;;6.97;6.00;;;12.00;51.30;;;;;;5028443;28;20742;-46
2022/03/15 02:24:48;;;;;;;12.70;5.57;;;12.00;51.30;;;;;;5029591;28;20890;-45
2022/03/15 02:27:13;;;;;;;7.10;5.17;;;12.00;51.30;;;;;;5029755;28;20424;-45
2022/03/15 02:29:39;;;;;;;6.80;4.73;;;12.00;51.30;;;;;;5029573;28;20494;-46
2022/03/15 02:32:04;;;;;;;5.97;5.20;;;11.90;51.10;;;;;;5027145;28;20648;-45
2022/03/15 02:34:30;;;;;;;7.83;5.20;;;11.90;51.30;;;;;;5029660;28;20223;-47
2022/03/15 02:36:56;;;;;;;5.10;4.53;;;11.90;51.40;;;;;;5030039;28;20620;-45
2022/03/15 02:39:22;;;;;;;6.00;5.40;;;11.90;51.40;;;;;;5029565;28;20200;-46
2022/03/15 02:41:47;;;;;;;5.87;4.50;;;11.90;51.50;;;;;;5029527;28;20302;-47
2022/03/15 02:44:13;;;;;;;6.50;5.07;;;11.90;51.60;;;;;;5029394;28;20578;-47
2022/03/15 02:46:39;;;;;;;7.27;5.13;;;11.90;51.70;;;;;;5029824;28;20562;-46
2022/03/15 02:49:11;;;;;;;9.83;5.83;;;11.90;51.70;;;;;;5028053;28;20276;-47
2022/03/15 02:51:38;;;;;;;5.50;4.60;;;11.90;51.80;;;;;;5025989;28;20936;-45
2022/03/15 02:54:08;;;;;;;7.53;5.40;;;11.90;51.60;;;;;;5029334;28;20471;-45
2022/03/15 02:56:42;;;;;;;5.80;5.13;;;11.80;51.50;;;;;;5029769;28;20435;-46
2022/03/15 02:59:14;;;;;;;7.10;5.57;;;11.80;51.70;;;;;;5029256;28;20428;-46
2022/03/15 03:01:41;;;;;;;7.47;5.60;;;11.80;51.80;;;;;;5029606;28;20428;-45
2022/03/15 03:04:06;;;;;;;6.90;6.13;;;11.80;51.80;;;;;;5029248;28;20577;-45
2022/03/15 03:06:32;;;;;;;7.07;5.87;;;11.80;51.90;;;;;;5029615;28;20459;-45
2022/03/15 03:08:58;;;;;;;7.77;5.00;;;11.80;51.90;;;;;;5029449;28;20189;-46
2022/03/15 03:11:24;;;;;;;6.37;5.50;;;11.70;51.90;;;;;;5029454;28;20193;-45
2022/03/15 03:13:52;;;;;;;6.80;5.87;;;11.70;51.90;;;;;;5028858;28;20347;-47
2022/03/15 03:16:18;;;;;;;12.53;6.07;;;11.70;51.90;;;;;;5028106;28;20234;-45
2022/03/15 03:18:43;;;;;;;8.37;5.13;;;11.70;52.10;;;;;;5029044;28;20914;-46
2022/03/15 03:21:09;;;;;;;6.27;5.20;;;11.60;52.10;;;;;;5029180;28;20464;-47
2022/03/15 03:23:36;;;;;;;10.77;5.63;;;11.60;52.20;;;;;;5032488;28;20201;-45
2022/03/15 03:26:05;;;;;;;7.80;5.20;;;11.60;52.20;;;;;;5033188;28;20440;-46
2022/03/15 03:28:38;;;;;;;5.77;4.83;;;11.60;52.40;;;;;;5032620;28;20493;-47
2022/03/15 03:31:09;;;;;;;6.83;5.00;;;11.50;52.50;;;;;;5030673;28;20471;-46
2022/03/15 03:33:36;;;;;;;5.70;5.10;;;11.50;52.60;;;;;;5032261;28;20435;-46
2022/03/15 03:36:02;;;;;;;7.00;5.30;;;11.60;52.50;;;;;;5032937;28;20432;-46
2022/03/15 03:38:29;;;;;;;8.30;5.70;;;11.30;52.70;;;;;;5032387;28;20471;-45
2022/03/15 03:40:54;;;;;;;8.00;5.40;;;11.30;53.40;;;;;;5032493;28;20425;-45
2022/03/15 03:43:21;;;;;;;6.57;5.20;;;11.40;53.30;;;;;;5030529;28;20852;-45
2022/03/15 03:45:48;;;;;;;8.87;6.03;;;11.50;53.00;;;;;;5032844;28;20225;-45
2022/03/15 03:48:13;;;;;;;6.37;5.00;;;11.60;52.80;;;;;;5032504;28;20435;-46
2022/03/15 03:50:40;;;;;;;8.00;4.83;;;11.60;52.70;;;;;;5031991;28;20446;-45
2022/03/15 03:53:06;;;;;;;5.97;5.10;;;11.60;52.50;;;;;;5032767;28;20221;-46
2022/03/15 03:55:32;;;;;;;6.90;4.90;;;11.70;52.30;;;;;;5032030;28;20427;-45
2022/03/15 03:57:58;;;;;;;8.37;5.47;;;11.70;52.20;;;;;;5032733;28;20425;-46
2022/03/15 04:00:24;;;;;;;5.43;3.93;;;11.60;52.20;;;;;;5031787;28;20432;-46
2022/03/15 04:02:52;;;;;;;10.77;5.50;;;11.40;52.60;;;;;;5032388;28;20424;-45
2022/03/15 04:05:18;;;;;;;6.77;4.60;;;11.10;53.30;;;;;;5031567;28;20560;-47
2022/03/15 04:07:44;;;;;;;7.00;5.07;;;11.10;53.70;;;;;;5032459;28;20431;-46
2022/03/15 04:10:10;;;;;;;8.10;4.83;;;11.30;53.50;;;;;;5029837;28;20339;-46
2022/03/15 04:12:36;;;;;;;7.23;6.00;;;11.40;53.20;;;;;;5032321;28;20862;-49
2022/03/15 04:15:06;;;;;;;8.10;5.63;;;11.40;53.00;;;;;;5031678;28;20436;-46
2022/03/15 04:17:32;;;;;;;5.77;4.87;;;11.40;53.10;;;;;;5031965;28;20446;-45
2022/03/15 04:19:58;;;;;;;6.40;5.27;;;11.30;53.00;;;;;;5031808;28;20510;-49
2022/03/15 04:22:23;;;;;;;8.43;5.40;;;11.30;53.00;;;;;;5031841;28;20506;-50
2022/03/15 04:24:49;;;;;;;6.17;4.93;;;11.40;53.00;;;;;;5031446;28;20572;-48
2022/03/15 04:27:16;;;;;;;5.60;4.70;;;11.40;52.80;;;;;;5032092;28;20621;-45
2022/03/15 04:29:41;;;;;;;6.40;4.87;;;11.40;52.90;;;;;;5031304;28;20215;-51
2022/03/15 04:32:07;;;;;;;4.93;4.43;;;11.40;53.00;;;;;;5029716;28;21137;-47
2022/03/15 04:34:33;;;;;;;9.13;4.70;;;11.50;53.00;;;;;;5029920;28;20456;-46
2022/03/15 04:36:59;;;;;;;10.10;5.67;;;11.50;52.80;;;;;;5030415;28;20534;-49
2022/03/15 04:39:25;;;;;;;7.53;4.40;;;11.50;52.80;;;;;;5031279;28;20198;-49
2022/03/15 04:41:51;;;;;;;6.67;4.77;;;11.50;53.00;;;;;;5031480;28;20250;-50
2022/03/15 04:44:17;;;;;;;6.23;4.40;;;11.50;53.00;;;;;;5030856;28;20655;-48
2022/03/15 04:46:43;;;;;;;10.83;5.37;;;11.50;52.80;;;;;;5031826;28;20540;-48
2022/03/15 04:49:09;;;;;;;8.07;4.50;;;11.50;52.60;;;;;;5030936;28;20199;-48
2022/03/15 04:51:35;;;;;;;6.63;4.00;;;11.50;52.60;;;;;;5031126;28;20519;-45
2022/03/15 04:54:01;;;;;;;5.23;4.43;;;11.50;52.60;;;;;;5031137;28;20200;-46
2022/03/15 04:56:27;;;;;;;12.00;4.87;;;11.50;52.50;;;;;;5031384;28;20224;-47
2022/03/15 04:58:52;;;;;;;5.10;3.70;;;11.60;52.50;;;;;;5030932;28;20420;-46
2022/03/15 05:01:18;;;;;;;6.87;5.03;;;11.50;52.40;;;;;;5031024;28;20189;-46
2022/03/15 05:03:44;;;;;;;5.47;4.93;;;11.50;52.50;;;;;;5029006;28;20218;-49
2022/03/15 05:06:10;;;;;;;8.30;4.97;;;11.50;52.40;;;;;;5030984;28;20834;-47
2022/03/15 05:08:35;;;;;;;6.20;5.40;;;11.60;52.40;;;;;;5030649;28;21020;-47
2022/03/15 05:11:07;;;;;;;5.67;5.17;;;11.50;52.30;;;;;;5030610;28;20186;-46
2022/03/15 05:13:40;;;;;;;5.40;4.90;;;11.50;52.60;;;;;;5030420;28;20308;-45
2022/03/15 05:16:10;;;;;;;7.53;4.40;;;11.40;52.70;;;;;;5031061;28;20436;-45
2022/03/15 05:18:36;;;;;;;6.40;5.07;;;11.40;52.90;;;;;;5030455;28;20493;-48
2022/03/15 05:21:05;;;;;;;8.73;5.80;;;11.30;53.00;;;;;;5031153;28;20511;-46
2022/03/15 05:23:31;;;;;;;6.20;5.13;;;11.40;53.00;;;;;;5030561;28;20436;-45
2022/03/15 05:25:57;;;;;;;6.97;5.67;;;11.20;53.10;;;;;;5031167;28;20541;-46
2022/03/15 05:28:22;;;;;;;10.77;5.90;;;11.20;53.50;;;;;;5030152;28;20200;-49
2022/03/15 05:30:48;;;;;;;5.70;5.10;;;11.20;53.30;;;;;;5026214;28;20802;-46
2022/03/15 05:33:14;;;;;;;9.20;5.33;;;11.20;53.40;;;;;;5029345;28;20225;-46
2022/03/15 05:35:39;;;;;;;10.00;6.17;;;11.10;53.40;;;;;;5030444;28;20216;-45
2022/03/15 05:38:05;;;;;;;7.80;5.50;;;11.00;53.80;;;;;;5030663;28;20236;-48
2022/03/15 05:40:31;;;;;;;8.57;5.20;;;11.10;53.70;;;;;;5029802;28;20221;-45
2022/03/15 05:42:57;;;;;;;6.60;4.47;;;11.20;53.60;;;;;;5030806;28;20232;-46
2022/03/15 05:45:24;;;;;;;6.10;4.80;;;11.30;53.40;;;;;;5029793;28;20509;-45
2022/03/15 05:47:50;;;;;;;5.97;5.17;;;11.40;53.40;;;;;;5030417;28;20533;-46
2022/03/15 05:50:16;;;;;;;7.23;5.20;;;11.40;53.20;;;;;;5029367;28;20424;-45
2022/03/15 05:52:41;;;;;;;6.70;5.30;;;11.40;53.10;;;;;;5030717;28;20197;-46
2022/03/15 05:55:08;;;;;;;6.63;4.87;;;11.40;53.00;;;;;;5028668;28;20268;-50
2022/03/15 05:57:34;;;;;;;8.63;5.53;;;11.40;53.20;;;;;;5028563;28;20205;-46
2022/03/15 05:59:59;;;;;;;13.20;5.80;;;11.40;53.10;;;;;;5029495;28;20424;-45
2022/03/15 06:02:25;;;;;;;7.17;5.80;;;11.40;53.00;;;;;;5030341;28;20636;-47
2022/03/15 06:04:50;;;;;;;10.40;7.00;;;11.50;53.10;;;;;;5029640;28;20578;-48
2022/03/15 06:07:16;;;;;;;11.80;5.90;;;11.50;53.00;;;;;;5030109;28;20189;-48
2022/03/15 06:09:42;;;;;;;7.37;5.73;;;11.50;53.00;;;;;;5029668;28;20197;-45
2022/03/15 06:12:09;;;;;;;5.20;4.67;;;11.40;53.00;;;;;;5030205;28;20623;-49
2022/03/15 06:14:34;;;;;;;7.70;5.30;;;11.30;53.10;;;;;;5029677;28;20427;-49
2022/03/15 06:17:00;;;;;;;5.53;4.47;;;11.30;53.20;;;;;;5030259;28;20506;-45
2022/03/15 06:19:26;;;;;;;8.10;4.97;;;11.30;53.30;;;;;;5029387;28;20236;-48
2022/03/15 06:21:51;;;;;;;6.10;5.50;;;11.20;53.40;;;;;;5029758;28;20244;-48
2022/03/15 06:24:17;;;;;;;5.70;4.97;;;11.10;53.70;;;;;;5029711;28;20632;-48
2022/03/15 06:26:43;;;;;;;10.93;5.53;;;11.10;54.00;;;;;;5028761;28;20189;-47
2022/03/15 06:29:09;;;;;;;8.93;5.63;;;11.00;54.10;;;;;;5029327;28;20795;-47
2022/03/15 06:31:35;;;;;;;6.30;5.30;;;11.10;54.00;;;;;;5027911;28;20512;-49
2022/03/15 06:34:04;;;;;;;8.30;5.07;;;11.30;53.90;;;;;;5029263;28;20435;-46
2022/03/15 06:36:30;;;;;;;8.73;5.33;;;11.30;53.60;;;;;;5030023;28;20622;-47
2022/03/15 06:38:56;;;;;;;7.90;5.80;;;11.50;53.60;;;;;;5029174;28;20478;-48
2022/03/15 06:41:22;;;;;;;7.83;5.60;;;11.60;53.50;;;;;;5029665;28;20435;-48
2022/03/15 06:43:47;;;;;;;7.43;6.57;;;11.60;53.50;;;;;;5029272;28;20424;-47
2022/03/15 06:46:14;;;;;;;13.67;7.90;;;11.70;53.50;;;;;;5030136;28;20212;-49
2022/03/15 06:48:40;;;;;;;9.70;8.23;;;11.80;53.30;;;;;;5028957;28;20228;-46
2022/03/15 06:51:06;;;;;;;9.67;7.43;;;11.90;53.20;;;;;;5029392;28;20954;-47
2022/03/15 06:53:31;;;;;;;11.13;5.63;;;11.80;53.00;;;;;;5027576;28;20213;-49
2022/03/15 06:55:57;;;;;;;9.50;5.23;;;11.90;53.10;;;;;;5029965;28;20201;-50
2022/03/15 06:58:23;;;;;;;10.73;5.90;;;11.90;52.90;;;;;;5032408;28;20201;-50
2022/03/15 07:00:49;;;;;;;7.63;5.30;;;11.90;53.00;;;;;;5033286;28;20466;-49
2022/03/15 07:03:15;;;;;;;9.77;6.30;;;11.90;53.20;;;;;;5033196;28;20427;-48
2022/03/15 07:05:41;;;;;;;10.70;6.30;;;11.80;53.30;;;;;;5032791;28;20228;-48
2022/03/15 07:08:06;;;;;;;9.20;5.87;;;11.90;53.20;;;;;;5033452;28;20194;-49
2022/03/15 07:10:33;;;;;;;9.80;5.57;;;11.80;53.30;;;;;;5032506;28;20823;-46
2022/03/15 07:12:59;;;;;;;9.60;6.50;;;11.70;53.50;;;;;;5033475;28;20188;-49
2022/03/15 07:15:25;;;;;;;7.50;5.73;;;11.60;53.80;;;;;;5032658;28;20436;-49
2022/03/15 07:17:56;;;;;;;4.83;4.43;;;11.50;54.00;;;;;;5033210;28;20981;-49
2022/03/15 07:20:23;;;;;;;6.70;5.67;;;11.20;54.60;;;;;;5030593;28;20244;-50
2022/03/15 07:22:48;;;;;;;9.10;5.50;;;11.20;55.30;;;;;;5033156;28;20428;-46
2022/03/15 07:25:15;;;;;;;8.63;5.63;;;11.30;54.90;;;;;;5032447;28;20487;-46
2022/03/15 07:27:41;;;;;;;6.93;5.97;;;11.20;55.10;;;;;;5033070;28;20586;-46
2022/03/15 07:30:07;;;;;;;14.67;5.73;;;11.30;55.50;;;;;;5030821;28;20424;-45
2022/03/15 07:32:33;;;;;;;8.13;6.90;;;11.40;55.00;;;;;;5038130;28;20424;-45
2022/03/15 07:34:58;;;;;;;7.13;5.60;;;11.20;55.60;;;;;;5052396;28;20817;-45
2022/03/15 07:37:24;;;;;;;7.67;6.50;;;11.30;55.70;;;;;;5052859;28;20197;-45
2022/03/15 07:39:50;;;;;;;7.93;6.00;;;11.30;55.40;;;;;;5051847;28;20200;-47
2022/03/15 07:42:16;;;;;;;13.20;6.70;;;11.20;55.90;;;;;;5052350;28;20200;-46
2022/03/15 07:44:42;;;;;;;8.23;6.40;;;11.30;55.70;;;;;;5032250;28;20225;-45
2022/03/15 07:47:10;;;;;;;8.50;5.40;;;11.00;56.20;;;;;;5031277;28;20200;-45
2022/03/15 07:49:36;;;;;;;9.70;5.73;;;11.00;56.70;;;;;;5032315;28;20982;-45
2022/03/15 07:52:01;;;;;;;8.90;5.77;;;11.20;56.00;;;;;;5032118;28;20538;-46
2022/03/15 07:54:27;;;;;;;7.90;5.43;;;11.40;55.70;;;;;;5032451;28;20194;-46
2022/03/15 07:56:52;;;;;;;8.40;5.43;;;11.70;55.30;;;;;;5032549;28;20567;-47
2022/03/15 07:59:19;;;;;;;9.17;5.77;;;11.90;54.50;;;;;;5032401;28;20295;-45
2022/03/15 08:01:44;;;;;;;8.77;5.87;;;12.10;54.10;;;;;;5029932;28;20208;-46
2022/03/15 08:04:10;;;;;;;7.73;5.30;;;12.10;53.80;;;;;;5024562;28;20877;-46
2022/03/15 08:06:36;;;;;;;6.93;5.10;;;12.00;53.80;;;;;;5032557;28;20274;-45
2022/03/15 08:09:03;;;;;;;6.60;5.30;;;12.00;53.80;;;;;;5031717;28;20431;-45
2022/03/15 08:11:29;;;;;;;10.03;5.40;;;12.10;53.40;;;;;;5031984;28;20243;-45
2022/03/15 08:13:55;;;;;;;6.03;4.77;;;12.20;53.50;;;;;;5029826;28;20424;-45
2022/03/15 08:16:22;;;;;;;9.83;5.20;;;12.20;53.40;;;;;;5032259;28;20251;-46
2022/03/15 08:18:49;;;;;;;7.60;4.53;;;12.30;53.20;;;;;;5031623;28;20424;-45
2022/03/15 08:21:15;;;;;;;8.77;5.37;;;12.50;53.00;;;;;;5031561;28;20878;-45
2022/03/15 08:23:43;;;;;;;6.67;5.17;;;12.70;52.80;;;;;;5031225;28;20558;-45
2022/03/15 08:26:09;;;;;;;7.70;6.20;;;12.90;52.40;;;;;;5032048;28;20483;-46
2022/03/15 08:28:35;;;;;;;6.10;5.50;;;12.90;52.00;;;;;;5031592;28;20494;-45
2022/03/15 08:31:01;;;;;;;8.30;5.50;;;12.60;52.30;;;;;;5031523;28;20865;-45
2022/03/15 08:33:27;;;;;;;7.73;5.70;;;12.40;52.90;;;;;;5031194;28;20504;-46
2022/03/15 08:35:52;;;;;;;8.20;5.07;;;12.20;53.50;;;;;;5032008;28;20447;-45
2022/03/15 08:38:18;;;;;;;6.77;5.20;;;12.30;53.90;;;;;;5031222;28;20594;-46
2022/03/15 08:40:44;;;;;;;10.70;5.80;;;12.40;53.50;;;;;;5029602;28;20211;-45
2022/03/15 08:43:10;;;;;;;8.10;5.70;;;12.50;53.00;;;;;;5031460;28;20189;-44
2022/03/15 08:45:37;;;;;;;7.13;5.10;;;12.70;52.70;;;;;;5031098;28;20963;-45
2022/03/15 08:48:03;;;;;;;9.60;4.87;;;13.00;52.10;;;;;;5031719;28;20523;-46
2022/03/15 08:50:30;;;;;;;7.67;5.00;;;13.20;51.50;;;;;;5030596;28;20470;-45
2022/03/15 08:52:55;;;;;;;7.33;5.10;;;13.40;50.90;;;;;;5031214;28;20482;-45
2022/03/15 08:55:22;;;;;;;6.17;4.23;;;13.60;50.60;;;;;;5030838;28;20424;-45
2022/03/15 08:57:48;;;;;;;6.73;5.83;;;13.50;50.60;;;;;;5031348;28;20644;-45
2022/03/15 09:00:14;;;;;;;6.90;4.40;;;13.50;50.10;;;;;;5030692;28;20481;-46
2022/03/15 09:02:40;;;;;;;9.07;4.50;;;13.40;50.10;;;;;;5024834;28;20439;-45
2022/03/15 09:05:06;;;;;;;5.60;5.03;;;13.60;50.40;;;;;;5030777;28;20479;-45
2022/03/15 09:07:32;;;;;;;5.37;4.30;;;13.90;49.90;;;;;;5030289;28;20229;-45
2022/03/15 09:09:58;;;;;;;6.93;4.93;;;14.10;49.40;;;;;;5029704;28;20432;-50
2022/03/15 09:12:23;;;;;;;8.50;4.60;;;14.00;48.90;;;;;;5031022;28;20212;-46
2022/03/15 09:14:50;;;;;;;11.07;6.03;;;14.10;48.90;;;;;;5030264;28;20467;-45
2022/03/15 09:17:16;;;;;;;5.97;4.53;;;14.40;48.80;;;;;;5030956;28;20300;-47
2022/03/15 09:19:42;;;;;;;5.57;4.60;;;14.40;48.20;;;;;;5029445;28;20464;-50
2022/03/15 09:22:08;;;;;;;7.33;4.40;;;14.50;48.20;;;;;;5030866;28;20451;-48
2022/03/15 09:24:36;;;;;;;6.67;5.00;;;14.60;48.20;;;;;;5030097;28;20217;-49
2022/03/15 09:27:02;;;;;;;6.33;5.40;;;14.60;48.30;;;;;;5031108;28;20436;-48
2022/03/15 09:29:28;;;;;;;11.83;4.87;;;14.60;48.00;;;;;;5030529;28;20431;-47
2022/03/15 09:31:54;;;;;;;9.07;5.03;;;14.50;48.50;;;;;;5030601;28;20416;-45
2022/03/15 09:34:22;;;;;;;13.77;6.27;;;14.50;48.60;;;;;;5030115;28;20467;-46
2022/03/15 09:36:49;;;;;;;7.73;4.97;;;14.70;48.80;;;;;;5028950;28;20197;-47
2022/03/15 09:39:15;;;;;;;17.80;12.90;;;14.90;48.60;;;;;;5030357;28;20424;-46
2022/03/15 09:41:41;;;;;;;10.43;7.07;;;15.00;48.20;;;;;;5030132;28;20424;-48
2022/03/15 09:44:09;;;;;;;9.97;7.27;;;15.10;48.30;;;;;;5029946;28;20476;-49
2022/03/15 09:46:41;;;;;;;11.20;6.00;;;15.20;48.00;;;;;;5030216;28;20577;-47
2022/03/15 09:49:08;;;;;;;10.13;5.43;;;15.20;48.20;;;;;;5030357;28;20420;-50
2022/03/15 09:51:35;;;;;;;8.37;5.30;;;15.30;48.10;;;;;;5026008;28;20435;-47
2022/03/15 09:54:06;;;;;;;6.43;5.50;;;15.50;48.00;;;;;;5030041;28;20428;-47
2022/03/15 09:56:38;;;;;;;8.00;6.40;;;15.60;48.00;;;;;;5030262;28;20428;-47
2022/03/15 09:59:14;;;;;;;6.97;5.70;;;15.70;48.00;;;;;;5029990;28;20431;-48
2022/03/15 10:01:41;;;;;;;8.10;5.10;;;15.70;48.30;;;;;;5029960;28;20451;-47
2022/03/15 10:04:07;;;;;;;4.80;3.97;;;15.80;48.20;;;;;;5021693;28;20424;-46
2022/03/15 10:06:33;;;;;;;4.37;3.67;;;15.80;47.80;;;;;;5029989;28;20428;-46
2022/03/15 10:08:59;;;;;;;8.37;4.23;;;15.80;48.70;;;;;;5029888;28;20435;-48
2022/03/15 10:11:25;;;;;;;4.80;3.60;;;15.70;48.40;;;;;;5029902;28;20371;-46
2022/03/15 10:13:50;;;;;;;5.80;3.50;;;15.80;48.30;;;;;;5029634;28;20185;-50
2022/03/15 10:16:17;;;;;;;6.80;3.40;;;15.90;48.50;;;;;;5029952;28;20480;-46
2022/03/15 10:18:57;;;;;;;4.23;3.20;;;16.00;48.70;;;;;;5029656;28;20686;-46
2022/03/15 10:21:26;;;;;;;3.90;3.40;;;16.10;48.50;;;;;;5029743;28;20444;-46
2022/03/15 10:23:58;;;;;;;5.77;3.40;;;16.20;48.30;;;;;;5029277;28;20497;-46
2022/03/15 10:26:27;;;;;;;9.40;6.17;;;16.20;47.80;;;;;;5030052;28;20465;-47
2022/03/15 10:28:54;;;;;;;13.50;7.70;;;16.10;47.70;;;;;;5029635;28;20473;-47
2022/03/15 10:31:24;;;;;;;11.53;7.60;;;15.60;48.70;;;;;;5028458;28;20439;-46
2022/03/15 10:33:53;;;;;;;8.67;6.60;;;15.20;49.60;;;;;;5033800;28;20453;-45
2022/03/15 10:36:21;;;;;;;11.37;7.10;;;15.30;49.70;;;;;;5033967;28;20485;-47
2022/03/15 10:38:51;;;;;;;10.07;5.83;;;15.40;49.70;;;;;;5033774;28;20444;-45
2022/03/15 10:41:18;;;;;;;12.87;7.40;;;15.60;49.60;;;;;;5033803;28;21060;-46
2022/03/15 10:43:49;;;;;;;9.40;5.30;;;15.80;49.20;;;;;;5033254;28;20789;-45
2022/03/15 10:46:24;;;;;;;7.57;4.97;;;16.00;48.80;;;;;;5034201;28;20483;-45
2022/03/15 10:49:03;;;;;;;4.80;4.17;;;16.10;48.60;;;;;;5033176;28;20416;-46
2022/03/15 10:51:29;;;;;;;9.70;4.50;;;16.20;48.30;;;;;;5033508;28;20442;-46
2022/03/15 10:54:03;;;;;;;8.60;4.40;;;16.20;48.20;;;;;;5033298;28;20948;-45
2022/03/15 10:56:29;;;;;;;6.70;4.50;;;16.20;48.30;;;;;;5031995;28;20443;-48
2022/03/15 10:59:02;;;;;;;7.50;5.10;;;16.30;48.50;;;;;;5033082;28;20507;-46
2022/03/15 11:01:35;;;;;;;7.80;4.13;;;16.40;48.90;;;;;;5033685;28;20557;-47
2022/03/15 11:04:03;;;;;;;5.70;4.60;;;16.40;49.10;;;;;;5026861;28;20426;-49
2022/03/15 11:06:40;;;;;;;6.17;4.43;;;16.40;49.70;;;;;;5033413;28;20435;-49
2022/03/15 11:09:26;;;;;;;5.10;4.43;;;16.40;50.10;;;;;;5032803;28;20910;-47
2022/03/15 11:11:53;;;;;;;6.23;4.50;;;16.40;49.90;;;;;;5033272;28;20450;-46
2022/03/15 11:14:40;;;;;;;4.20;3.90;;;16.30;49.90;;;;;;5032654;28;20783;-49
2022/03/15 11:17:15;;;;;;;4.30;3.90;;;16.40;50.20;;;;;;5033138;28;21000;-46
2022/03/15 11:19:45;;;;;;;4.80;4.17;;;16.40;50.20;;;;;;5032239;28;20455;-46
2022/03/15 11:22:14;;;;;;;6.10;4.07;;;16.40;50.50;;;;;;5033134;28;20463;-45
2022/03/15 11:24:44;;;;;;;6.60;4.47;;;16.50;50.80;;;;;;5030944;28;20534;-46
2022/03/15 11:27:14;;;;;;;7.07;4.63;;;16.50;50.90;;;;;;5033168;28;20474;-46
2022/03/15 11:29:42;;;;;;;5.27;4.77;;;16.40;50.90;;;;;;5032500;28;20508;-48
2022/03/15 11:32:07;;;;;;;6.00;4.37;;;16.20;50.90;;;;;;5033165;28;20490;-46
2022/03/15 11:34:34;;;;;;;7.00;5.23;;;16.10;51.20;;;;;;5032450;28;20428;-47
2022/03/15 11:37:00;;;;;;;8.27;5.00;;;16.10;51.90;;;;;;5033166;28;20197;-46
2022/03/15 11:39:26;;;;;;;7.40;4.93;;;15.90;51.90;;;;;;5041932;28;20422;-46
2022/03/15 11:41:52;;;;;;;6.27;4.90;;;15.70;53.00;;;;;;5052957;28;20569;-46
2022/03/15 11:44:40;;;;;;;10.77;5.40;;;15.80;52.90;;;;;;5035322;28;20221;-46
2022/03/15 11:47:32;;;;;;;8.93;5.40;;;15.80;53.80;;;;;;5032871;28;20523;-46
2022/03/15 11:50:02;;;;;;;8.60;5.50;;;15.70;53.30;;;;;;5031835;28;20467;-50
2022/03/15 11:52:48;;;;;;;10.90;6.60;;;15.60;54.00;;;;;;5031286;28;20515;-48
2022/03/15 11:55:19;;;;;;;6.83;5.30;;;15.50;53.80;;;;;;5031996;28;20440;-49
2022/03/15 11:57:49;;;;;;;10.37;6.23;;;15.10;54.00;;;;;;5032612;28;20527;-46
2022/03/15 12:00:32;;;;;;;7.63;6.63;;;15.00;54.50;;;;;;5031627;28;20864;-46
2022/03/15 12:03:02;;;;;;;10.10;6.30;;;14.80;54.80;;;;;;5026046;28;20444;-49
2022/03/15 12:05:28;;;;;;;7.50;5.50;;;14.50;55.30;;;;;;5041577;28;20492;-48
2022/03/15 12:08:15;;;;;;;10.47;5.60;;;14.20;55.60;;;;;;5052429;28;20430;-49
2022/03/15 12:11:01;;;;;;;9.30;6.40;;;14.20;56.50;;;;;;5051694;28;20490;-45
2022/03/15 12:13:43;;;;;;;5.70;5.10;;;14.00;56.60;;;;;;5051871;28;20418;-47
2022/03/15 12:16:21;;;;;;;6.13;4.83;;;14.10;57.20;;;;;;5052002;28;20940;-46
2022/03/15 12:19:30;;;;;;;7.70;5.50;;;14.20;56.80;;;;;;5050193;28;20526;-50
2022/03/15 12:22:00;;;;;;;8.67;6.13;;;14.30;56.40;;;;;;5052116;28;20456;-51
2022/03/15 12:24:45;;;;;;;7.20;6.03;;;14.20;56.90;;;;;;5051402;28;20475;-50
2022/03/15 12:27:16;;;;;;;8.60;6.03;;;14.00;58.00;;;;;;5051822;28;20522;-50
2022/03/15 12:29:52;;;;;;;7.80;6.17;;;14.00;57.80;;;;;;5051019;28;20483;-50
2022/03/15 12:32:18;;;;;;;7.60;5.80;;;14.10;58.20;;;;;;5051841;28;20530;-50
2022/03/15 12:34:49;;;;;;;12.50;6.77;;;14.20;58.30;;;;;;5050994;28;20439;-48
2022/03/15 12:37:15;;;;;;;7.33;5.53;;;14.50;57.70;;;;;;5051746;28;20423;-49
2022/03/15 12:39:41;;;;;;;8.93;5.67;;;14.60;57.30;;;;;;5050627;28;20431;-48
2022/03/15 12:42:11;;;;;;;9.00;5.50;;;14.50;57.20;;;;;;5052007;28;20945;-46
2022/03/15 12:44:48;;;;;;;7.73;6.13;;;14.40;56.90;;;;;;5031778;28;20228;-49
2022/03/15 12:47:18;;;;;;;8.33;5.83;;;14.20;57.50;;;;;;5030954;28;20512;-48